Campanya meteocatpedra

Dades EMA la Pobla de Segur

?
?
Resum diari 22:30 TU
Dades diàries de l'estació meteorològica
Temperatura mitjana 21.7 °C
Temperatura màxima 29.9 °C 15:32 TU
Temperatura mínima 13.8 °C 4:53 TU
Humitat relativa mitjana 56%
Precipitació acumulada 0.0 mm
Ratxa màxima del vent (10 m) 22.3 km/h - 326º 3:49 TU
Pressió atmosfèrica mitjana 1018.2 hPa
Irradiació solar global 30.2 MJ/m2

El tram horari està expressat en Temps Universal (TU). Cal sumar una hora en horari d'hivern i dues en horari d'estiu per passar a l'hora oficial.

la Pobla de Segur

Metadades estació meteorol´gica
Municipi La Pobla de Segur
Comarca Pallars Jussà
Altitud 508 m
Data alta 18.11.2016
Estat actual Operativa
Dades de període
Període
TU
TM
°C
TX
°C
TN
°C
HRM
%
PPT
mm
VVM (10 m)
km/h
DVM (10 m)
graus
VVX (10 m)
km/h
PM
hPa
RS
W/m2
00:00 - 00:30 15.7 16.3 15.1 75 0.0 7.2 29 9.4 1021.2 0
00:30 - 01:00 15.6 16.2 14.6 74 0.0 6.8 352 12.6 1021.3 0
01:00 - 01:30 15.3 16.1 14.5 73 0.0 10.4 343 18.7 1021.3 0
01:30 - 02:00 16.0 16.2 15.9 71 0.0 12.2 334 21.2 1021.2 0
02:00 - 02:30 15.7 15.9 15.4 73 0.0 11.2 342 19.4 1021.2 0
02:30 - 03:00 15.2 15.4 14.9 72 0.0 13.0 319 22.0 1021.2 0
03:00 - 03:30 15.4 15.6 15.2 71 0.0 11.5 328 18.4 1021.3 0
03:30 - 04:00 15.4 15.5 15.2 70 0.0 10.8 336 22.3 1021.4 0
04:00 - 04:30 15.1 15.3 14.8 71 0.0 9.7 330 17.3 1021.6 0
04:30 - 05:00 14.2 15.0 13.8 75 0.0 6.1 311 14.4 1022.0 11
05:00 - 05:30 14.6 15.1 14.2 73 0.0 8.6 326 15.1 1022.1 50
05:30 - 06:00 15.5 16.0 15.0 68 0.0 9.7 328 18.4 1022.0 167
06:00 - 06:30 16.5 17.2 15.8 65 0.0 9.0 325 15.8 1021.8 262
06:30 - 07:00 17.7 17.9 17.3 66 0.0 3.6 180 10.8 1021.6 357
07:00 - 07:30 18.6 19.2 18.0 64 0.0 3.6 174 6.1 1021.3 454
07:30 - 08:00 19.4 19.6 19.2 62 0.0 5.0 172 10.1 1021.0 551
08:00 - 08:30 20.0 20.8 19.5 59 0.0 5.4 171 11.2 1020.6 641
08:30 - 09:00 21.5 22.3 20.8 52 0.0 4.0 163 7.9 1020.1 722
09:00 - 09:30 23.2 23.9 22.3 48 0.0 4.3 161 9.0 1019.5 796
09:30 - 10:00 23.9 24.6 23.5 44 0.0 5.4 159 9.4 1019.0 858
10:00 - 10:30 25.2 25.9 24.5 40 0.0 5.0 149 10.4 1018.6 906
10:30 - 11:00 25.6 25.9 25.3 44 0.0 7.6 147 11.9 1017.9 947
11:00 - 11:30 26.2 26.4 25.8 41 0.0 8.6 147 12.2 1017.5 972
11:30 - 12:00 26.9 27.3 26.3 40 0.0 8.6 148 14.4 1016.9 982
12:00 - 12:30 27.5 28.0 27.1 39 0.0 8.3 149 13.0 1016.5 979
12:30 - 13:00 28.1 28.8 27.6 36 0.0 7.2 154 12.6 1016.2 963
13:00 - 13:30 28.9 29.3 28.5 35 0.0 7.2 155 14.8 1015.7 932
13:30 - 14:00 28.9 29.3 28.7 33 0.0 6.8 150 15.1 1015.4 888
14:00 - 14:30 29.3 29.5 29.0 33 0.0 6.8 152 14.0 1015.0 832
14:30 - 15:00 29.3 29.5 29.0 33 0.0 7.2 154 14.0 1014.6 764
15:00 - 15:30 29.5 29.8 29.2 32 0.0 5.4 158 13.0 1014.4 685
15:30 - 16:00 29.4 29.9 29.2 32 0.0 6.5 154 12.2 1013.9 597
16:00 - 16:30 29.4 29.7 29.1 33 0.0 6.1 170 12.6 1013.8 501
16:30 - 17:00 29.3 29.6 28.8 35 0.0 5.0 175 13.7 1013.6 400
17:00 - 17:30 28.9 29.1 28.2 37 0.0 4.0 195 11.9 1013.7 296
17:30 - 18:00 27.7 28.3 26.7 41 0.0 3.6 208 13.0 1014.0 181
18:00 - 18:30 25.9 26.6 25.2 46 0.0 2.5 188 8.6 1014.6 75
18:30 - 19:00 24.4 25.2 23.4 50 0.0 1.4 169 7.2 1015.1 24
19:00 - 19:30 22.4 23.3 21.3 61 0.0 2.2 314 6.1 1015.8 3
19:30 - 20:00 20.6 21.1 20.3 65 0.0 4.3 321 9.0 1016.5 0
20:00 - 20:30 19.8 20.3 19.5 68 0.0 4.3 336 12.6 1016.9 0
20:30 - 21:00 19.2 20.4 18.5 69 0.0 3.6 9 10.8 1017.4 0
21:00 - 21:30 18.3 18.7 18.1 72 0.0 5.8 6 12.6 1017.9 0
21:30 - 22:00 18.0 19.0 17.2 72 0.0 7.2 12 13.0 1018.0 0
22:00 - 22:30 17.7 18.8 17.0 71 0.0 6.8 9 14.0 1018.0 0
22:30 - 23:00 16.5 16.6 16.4 75 0.0 6.1 15 10.8 1018.4 0

Les dades en taronja només han passat un control de qualitat automàtic. Resta pendent la seva validació definitiva.